Time;durP1;ratioP1;P1;durP2;ratioP2;P2;SDS_P1;SDS_P2;PMS_P1;PMS_P2;Temp;Humidity;BMP_temperature;BMP_pressure;BME280_temperature;BME280_humidity;BME280_pressure;Samples;Min_cycle;Max_cycle;Signal;HPM_P1;HPM_P2
2022/12/01 14:34:52;;;;;;;;;;;0.00;84.30;;;;;;5111858;27;19916;-89
2022/12/01 14:37:18;;;;;;;;;;;0.00;85.70;;;;;;5108430;28;20011;-88
2022/12/01 14:40:02;;;;;;;;;;;0.10;86.40;;;;;;5105535;28;19912;-88
2022/12/01 14:45:26;;;;;;;;;;;0.30;88.10;;;;;;5122288;28;20370;-87
2022/12/01 14:47:58;;;;;;;;;;;0.40;87.10;;;;;;5098564;28;19947;-89
2022/12/01 14:50:28;;;;;;;;;;;0.50;87.60;;;;;;5105170;28;19966;-89
2022/12/01 14:53:00;;;;;;;;;;;0.60;87.80;;;;;;5093840;28;19923;-89
2022/12/01 14:55:32;;;;;;;;;;;0.70;87.50;;;;;;5098126;28;19913;-89
2022/12/01 14:58:04;;;;;;;;;;;0.80;85.10;;;;;;5100457;28;19919;-88
2022/12/01 15:00:30;;;;;;;;;;;0.80;84.90;;;;;;5102707;28;19966;-88
2022/12/01 15:02:57;;;;;;;;;;;0.90;84.60;;;;;;5098124;28;19918;-90
2022/12/01 15:05:27;;;;;;;;;;;0.90;84.50;;;;;;5095759;28;19989;-91
2022/12/01 15:07:56;;;;;;;;;;;0.90;83.60;;;;;;5104596;28;20249;-91
2022/12/01 15:10:36;;;;;;;;;;;1.00;83.80;;;;;;5109865;28;19912;-91
2022/12/01 15:13:31;;;;;;;;;;;1.00;84.00;;;;;;5097296;28;19920;-91
2022/12/01 15:16:01;;;;;;;;;;;1.00;83.80;;;;;;5098385;28;20332;-91
2022/12/01 15:18:28;;;;;;;;;;;1.00;83.60;;;;;;5102560;28;20319;-89
2022/12/01 15:21:02;;;;;;;;;;;1.00;83.00;;;;;;5095817;28;19913;-92
2022/12/01 15:23:27;;;;;;;;;;;1.00;81.80;;;;;;5102965;28;19912;-91
2022/12/01 15:25:53;;;;;;;;;;;1.00;80.90;;;;;;5095145;28;20375;-92
2022/12/01 15:28:20;;;;;;;;;;;1.00;80.60;;;;;;5108210;28;19912;-92
2022/12/01 15:30:48;;;;;;;;;;;1.10;80.40;;;;;;5103695;28;20275;-91
2022/12/01 15:33:21;;;;;;;;;;;1.10;79.60;;;;;;5095180;28;20352;-90
2022/12/01 15:35:47;;;;;;;;;;;1.10;78.40;;;;;;5089276;28;19954;-91
2022/12/01 15:38:18;;;;;;;;;;;1.10;77.40;;;;;;5103607;28;19963;-90
2022/12/01 15:40:44;;;;;;;;;;;1.10;75.10;;;;;;5090440;28;20272;-91
2022/12/01 15:43:16;;;;;;;;;;;1.10;74.60;;;;;;5105743;28;20007;-89
2022/12/01 15:47:47;;;;;;;;;;;1.10;74.90;;;;;;5144871;27;20286;-89
2022/12/01 15:50:32;;;;;;;;;;;1.10;76.20;;;;;;5136541;27;19926;-89
2022/12/01 15:53:20;;;;;;;;;;;1.20;76.10;;;;;;5117422;27;19912;-89
2022/12/01 15:55:47;;;;;;;;;;;1.10;76.70;;;;;;5124803;27;19923;-90
2022/12/01 15:58:23;;;;;;;;;;;1.20;76.40;;;;;;5139222;27;20360;-89
2022/12/01 16:00:56;;;;;;;;;;;1.20;76.30;;;;;;5143247;27;19911;-88
2022/12/01 16:03:23;;;;;;;;;;;1.10;76.30;;;;;;5132491;27;19944;-87
2022/12/01 16:05:49;;;;;;;;;;;1.10;76.60;;;;;;5144022;27;19965;-88
2022/12/01 16:08:17;;;;;;;;;;;1.20;76.50;;;;;;5133726;27;19963;-89
2022/12/01 16:10:42;;;;;;;;;;;1.20;77.30;;;;;;5121956;27;19911;-90
2022/12/01 16:13:26;;;;;;;;;;;1.20;76.50;;;;;;5132517;27;19994;-90
2022/12/01 16:15:52;;;;;;;;;;;1.20;76.50;;;;;;5142059;27;19919;-89
2022/12/01 16:18:31;;;;;;;;;;;1.20;76.70;;;;;;5130590;27;19919;-89
2022/12/01 16:21:03;;;;;;;;;;;1.20;75.90;;;;;;5123175;27;19911;-89
2022/12/01 16:23:29;;;;;;;;;;;1.10;75.90;;;;;;5134291;27;19911;-90
2022/12/01 16:25:55;;;;;;;;;;;1.10;75.60;;;;;;5152662;27;19911;-89
2022/12/01 16:28:26;;;;;;;;;;;1.10;75.70;;;;;;5151541;27;20308;-91
2022/12/01 16:30:52;;;;;;;;;;;1.10;75.50;;;;;;5133933;27;20460;-89
2022/12/01 16:33:17;;;;;;;;;;;1.10;75.20;;;;;;5128732;27;19973;-88
2022/12/01 16:35:43;;;;;;;;;;;1.10;74.80;;;;;;5145019;27;19919;-89
2022/12/01 16:38:15;;;;;;;;;;;1.10;74.20;;;;;;5125112;27;19912;-89
2022/12/01 16:40:41;;;;;;;;;;;1.10;73.70;;;;;;5145531;27;19912;-91
2022/12/01 16:43:17;;;;;;;;;;;1.10;73.70;;;;;;5143418;27;19915;-89
2022/12/01 16:45:44;;;;;;;;;;;1.10;73.90;;;;;;5113910;27;19924;-89
2022/12/01 16:48:09;;;;;;;;;;;1.10;73.50;;;;;;5095040;28;19919;-88
2022/12/01 16:50:35;;;;;;;;;;;1.10;74.00;;;;;;5099913;28;19909;-88
2022/12/01 16:53:01;;;;;;;;;;;1.10;74.20;;;;;;5101969;28;20321;-88
2022/12/01 16:55:41;;;;;;;;;;;1.20;74.20;;;;;;5100959;28;19920;-88
2022/12/01 16:58:07;;;;;;;;;;;1.20;73.60;;;;;;5092216;28;19951;-90
2022/12/01 17:00:32;;;;;;;;;;;1.10;73.90;;;;;;5085226;28;20502;-91
2022/12/01 17:02:58;;;;;;;;;;;1.10;73.50;;;;;;5091773;28;19922;-91
2022/12/01 17:05:24;;;;;;;;;;;1.10;73.40;;;;;;5090482;28;19916;-92
2022/12/01 17:07:49;;;;;;;;;;;1.10;73.50;;;;;;5086855;28;19951;-90
